sensor_id;sensor_type;location;lat;lon;timestamp;P1;durP1;ratioP1;P2;durP2;ratioP2
43841;SDS011;29495;49.970;20.842;2022-10-16T00:01:08;7.50;;;5.63;;
43841;SDS011;29495;49.970;20.842;2022-10-16T00:03:44;6.78;;;5.40;;
43841;SDS011;29495;49.970;20.842;2022-10-16T00:06:11;8.75;;;5.47;;
43841;SDS011;29495;49.970;20.842;2022-10-16T00:08:37;7.70;;;5.43;;
43841;SDS011;29495;49.970;20.842;2022-10-16T00:11:14;7.38;;;5.53;;
43841;SDS011;29495;49.970;20.842;2022-10-16T00:13:44;5.97;;;5.00;;
43841;SDS011;29495;49.970;20.842;2022-10-16T00:16:11;6.05;;;5.07;;
43841;SDS011;29495;49.970;20.842;2022-10-16T00:18:40;6.00;;;4.90;;
43841;SDS011;29495;49.970;20.842;2022-10-16T00:21:16;6.90;;;5.32;;
43841;SDS011;29495;49.970;20.842;2022-10-16T00:24:05;6.70;;;5.07;;
43841;SDS011;29495;49.970;20.842;2022-10-16T00:26:36;7.13;;;5.07;;
43841;SDS011;29495;49.970;20.842;2022-10-16T00:29:03;7.13;;;4.90;;
43841;SDS011;29495;49.970;20.842;2022-10-16T00:31:30;8.95;;;5.22;;
43841;SDS011;29495;49.970;20.842;2022-10-16T00:33:57;8.05;;;5.60;;
43841;SDS011;29495;49.970;20.842;2022-10-16T00:36:23;9.27;;;5.57;;
43841;SDS011;29495;49.970;20.842;2022-10-16T00:38:51;11.45;;;6.25;;
43841;SDS011;29495;49.970;20.842;2022-10-16T00:41:23;10.30;;;5.40;;
43841;SDS011;29495;49.970;20.842;2022-10-16T00:46:24;8.68;;;5.75;;
43841;SDS011;29495;49.970;20.842;2022-10-16T00:49:10;7.95;;;6.00;;
43841;SDS011;29495;49.970;20.842;2022-10-16T00:51:50;9.13;;;5.70;;
43841;SDS011;29495;49.970;20.842;2022-10-16T00:56:46;7.53;;;5.18;;
43841;SDS011;29495;49.970;20.842;2022-10-16T00:59:16;7.03;;;5.00;;
43841;SDS011;29495;49.970;20.842;2022-10-16T01:01:54;7.07;;;5.35;;
43841;SDS011;29495;49.970;20.842;2022-10-16T01:04:22;6.32;;;5.05;;
43841;SDS011;29495;49.970;20.842;2022-10-16T01:15:21;7.55;;;5.10;;
43841;SDS011;29495;49.970;20.842;2022-10-16T01:17:56;6.45;;;5.00;;
43841;SDS011;29495;49.970;20.842;2022-10-16T01:20:27;7.65;;;5.50;;
43841;SDS011;29495;49.970;20.842;2022-10-16T01:23:01;8.35;;;6.13;;
43841;SDS011;29495;49.970;20.842;2022-10-16T01:29:03;6.68;;;4.68;;
43841;SDS011;29495;49.970;20.842;2022-10-16T01:31:45;8.13;;;5.85;;
43841;SDS011;29495;49.970;20.842;2022-10-16T01:34:16;7.07;;;5.60;;
43841;SDS011;29495;49.970;20.842;2022-10-16T01:36:56;7.30;;;5.50;;
43841;SDS011;29495;49.970;20.842;2022-10-16T01:39:29;7.93;;;6.50;;
43841;SDS011;29495;49.970;20.842;2022-10-16T01:42:03;7.60;;;5.70;;
43841;SDS011;29495;49.970;20.842;2022-10-16T01:44:33;9.13;;;5.90;;
43841;SDS011;29495;49.970;20.842;2022-10-16T01:47:01;9.48;;;6.13;;
43841;SDS011;29495;49.970;20.842;2022-10-16T01:49:29;7.43;;;5.28;;
43841;SDS011;29495;49.970;20.842;2022-10-16T01:51:59;7.05;;;5.07;;
43841;SDS011;29495;49.970;20.842;2022-10-16T01:54:30;6.38;;;4.35;;
43841;SDS011;29495;49.970;20.842;2022-10-16T01:59:26;7.78;;;5.20;;
43841;SDS011;29495;49.970;20.842;2022-10-16T02:01:59;5.95;;;4.43;;
43841;SDS011;29495;49.970;20.842;2022-10-16T02:04:28;6.15;;;4.20;;
43841;SDS011;29495;49.970;20.842;2022-10-16T02:06:58;6.15;;;4.50;;
43841;SDS011;29495;49.970;20.842;2022-10-16T02:09:24;6.20;;;4.70;;
43841;SDS011;29495;49.970;20.842;2022-10-16T02:11:52;6.95;;;5.00;;
43841;SDS011;29495;49.970;20.842;2022-10-16T02:14:20;6.05;;;4.78;;
43841;SDS011;29495;49.970;20.842;2022-10-16T02:16:49;5.82;;;4.40;;
43841;SDS011;29495;49.970;20.842;2022-10-16T02:19:16;6.68;;;4.80;;
43841;SDS011;29495;49.970;20.842;2022-10-16T02:30:24;4.70;;;4.20;;
43841;SDS011;29495;49.970;20.842;2022-10-16T02:32:51;5.90;;;4.35;;
43841;SDS011;29495;49.970;20.842;2022-10-16T02:35:18;6.03;;;4.15;;
43841;SDS011;29495;49.970;20.842;2022-10-16T02:37:46;5.60;;;4.05;;
43841;SDS011;29495;49.970;20.842;2022-10-16T02:40:14;6.95;;;5.03;;
43841;SDS011;29495;49.970;20.842;2022-10-16T02:42:42;6.97;;;4.35;;
43841;SDS011;29495;49.970;20.842;2022-10-16T02:45:08;7.45;;;4.30;;
43841;SDS011;29495;49.970;20.842;2022-10-16T02:47:36;5.55;;;4.13;;
43841;SDS011;29495;49.970;20.842;2022-10-16T02:50:02;7.03;;;4.50;;
43841;SDS011;29495;49.970;20.842;2022-10-16T02:52:29;6.35;;;4.03;;
43841;SDS011;29495;49.970;20.842;2022-10-16T02:54:55;4.95;;;4.13;;
43841;SDS011;29495;49.970;20.842;2022-10-16T02:57:22;6.93;;;4.18;;
43841;SDS011;29495;49.970;20.842;2022-10-16T02:59:48;7.80;;;4.70;;
43841;SDS011;29495;49.970;20.842;2022-10-16T03:02:14;7.72;;;4.32;;
43841;SDS011;29495;49.970;20.842;2022-10-16T03:04:40;6.40;;;4.53;;
43841;SDS011;29495;49.970;20.842;2022-10-16T03:07:06;5.95;;;4.25;;
43841;SDS011;29495;49.970;20.842;2022-10-16T03:09:33;5.82;;;4.75;;
43841;SDS011;29495;49.970;20.842;2022-10-16T03:11:59;4.75;;;3.55;;
43841;SDS011;29495;49.970;20.842;2022-10-16T03:14:25;4.97;;;4.00;;
43841;SDS011;29495;49.970;20.842;2022-10-16T03:16:51;5.78;;;4.03;;
43841;SDS011;29495;49.970;20.842;2022-10-16T03:19:17;5.45;;;3.97;;
43841;SDS011;29495;49.970;20.842;2022-10-16T03:21:43;4.28;;;3.67;;
43841;SDS011;29495;49.970;20.842;2022-10-16T03:24:10;5.50;;;3.90;;
43841;SDS011;29495;49.970;20.842;2022-10-16T03:26:36;7.15;;;4.47;;
43841;SDS011;29495;49.970;20.842;2022-10-16T03:29:02;5.85;;;4.65;;
43841;SDS011;29495;49.970;20.842;2022-10-16T03:31:29;5.88;;;4.57;;
43841;SDS011;29495;49.970;20.842;2022-10-16T03:33:55;6.35;;;4.72;;
43841;SDS011;29495;49.970;20.842;2022-10-16T03:36:22;5.38;;;4.80;;
43841;SDS011;29495;49.970;20.842;2022-10-16T03:38:48;5.40;;;3.80;;
43841;SDS011;29495;49.970;20.842;2022-10-16T03:41:13;4.40;;;4.00;;
43841;SDS011;29495;49.970;20.842;2022-10-16T03:43:39;6.30;;;3.85;;
43841;SDS011;29495;49.970;20.842;2022-10-16T03:46:05;5.22;;;4.20;;
43841;SDS011;29495;49.970;20.842;2022-10-16T03:48:31;5.95;;;4.35;;
43841;SDS011;29495;49.970;20.842;2022-10-16T03:50:58;7.55;;;5.25;;
43841;SDS011;29495;49.970;20.842;2022-10-16T03:53:24;7.18;;;5.20;;
43841;SDS011;29495;49.970;20.842;2022-10-16T03:55:50;7.55;;;5.30;;
43841;SDS011;29495;49.970;20.842;2022-10-16T03:58:16;5.32;;;4.50;;
43841;SDS011;29495;49.970;20.842;2022-10-16T04:00:43;4.75;;;4.20;;
43841;SDS011;29495;49.970;20.842;2022-10-16T04:03:10;5.68;;;4.03;;
43841;SDS011;29495;49.970;20.842;2022-10-16T04:05:36;5.15;;;4.28;;
43841;SDS011;29495;49.970;20.842;2022-10-16T04:08:02;5.25;;;4.35;;
43841;SDS011;29495;49.970;20.842;2022-10-16T04:10:29;6.78;;;3.88;;
43841;SDS011;29495;49.970;20.842;2022-10-16T04:12:55;6.03;;;3.88;;
43841;SDS011;29495;49.970;20.842;2022-10-16T04:15:24;4.97;;;4.40;;
43841;SDS011;29495;49.970;20.842;2022-10-16T04:17:51;5.32;;;4.05;;
43841;SDS011;29495;49.970;20.842;2022-10-16T04:20:17;4.93;;;3.83;;
43841;SDS011;29495;49.970;20.842;2022-10-16T04:22:43;4.65;;;3.90;;
43841;SDS011;29495;49.970;20.842;2022-10-16T04:25:10;6.95;;;3.85;;
43841;SDS011;29495;49.970;20.842;2022-10-16T04:27:37;6.63;;;4.22;;
43841;SDS011;29495;49.970;20.842;2022-10-16T04:30:04;6.30;;;4.70;;
43841;SDS011;29495;49.970;20.842;2022-10-16T04:32:30;6.13;;;4.38;;
43841;SDS011;29495;49.970;20.842;2022-10-16T04:34:56;5.57;;;4.25;;
43841;SDS011;29495;49.970;20.842;2022-10-16T04:37:25;6.03;;;4.75;;
43841;SDS011;29495;49.970;20.842;2022-10-16T04:39:52;5.68;;;4.57;;
43841;SDS011;29495;49.970;20.842;2022-10-16T04:42:19;5.80;;;4.35;;
43841;SDS011;29495;49.970;20.842;2022-10-16T04:44:46;5.63;;;3.97;;
43841;SDS011;29495;49.970;20.842;2022-10-16T04:47:12;6.15;;;4.65;;
43841;SDS011;29495;49.970;20.842;2022-10-16T04:49:39;5.90;;;4.53;;
43841;SDS011;29495;49.970;20.842;2022-10-16T04:52:05;5.78;;;4.90;;
43841;SDS011;29495;49.970;20.842;2022-10-16T04:54:31;5.63;;;4.32;;
43841;SDS011;29495;49.970;20.842;2022-10-16T04:56:57;7.13;;;4.93;;
43841;SDS011;29495;49.970;20.842;2022-10-16T04:59:23;7.20;;;4.82;;
43841;SDS011;29495;49.970;20.842;2022-10-16T05:01:49;5.63;;;4.95;;
43841;SDS011;29495;49.970;20.842;2022-10-16T05:04:15;7.80;;;5.30;;
43841;SDS011;29495;49.970;20.842;2022-10-16T05:06:41;5.85;;;4.82;;
43841;SDS011;29495;49.970;20.842;2022-10-16T05:09:07;5.70;;;4.30;;
43841;SDS011;29495;49.970;20.842;2022-10-16T05:11:34;5.65;;;4.50;;
43841;SDS011;29495;49.970;20.842;2022-10-16T05:14:00;7.97;;;4.88;;
43841;SDS011;29495;49.970;20.842;2022-10-16T05:16:27;9.30;;;6.20;;
43841;SDS011;29495;49.970;20.842;2022-10-16T05:18:53;8.30;;;5.20;;
43841;SDS011;29495;49.970;20.842;2022-10-16T05:21:20;7.30;;;5.07;;
43841;SDS011;29495;49.970;20.842;2022-10-16T05:23:46;7.60;;;4.55;;
43841;SDS011;29495;49.970;20.842;2022-10-16T05:26:11;5.88;;;4.85;;
43841;SDS011;29495;49.970;20.842;2022-10-16T05:28:37;8.05;;;5.63;;
43841;SDS011;29495;49.970;20.842;2022-10-16T05:31:04;6.85;;;4.90;;
43841;SDS011;29495;49.970;20.842;2022-10-16T05:33:34;9.82;;;6.15;;
43841;SDS011;29495;49.970;20.842;2022-10-16T05:36:01;6.35;;;4.32;;
43841;SDS011;29495;49.970;20.842;2022-10-16T05:38:33;6.05;;;4.93;;
43841;SDS011;29495;49.970;20.842;2022-10-16T05:40:59;15.25;;;6.03;;
43841;SDS011;29495;49.970;20.842;2022-10-16T05:43:27;7.93;;;6.07;;
43841;SDS011;29495;49.970;20.842;2022-10-16T05:46:01;8.55;;;5.93;;
43841;SDS011;29495;49.970;20.842;2022-10-16T05:48:29;11.18;;;7.00;;
43841;SDS011;29495;49.970;20.842;2022-10-16T05:51:05;11.98;;;7.38;;
43841;SDS011;29495;49.970;20.842;2022-10-16T05:53:33;11.75;;;9.38;;
43841;SDS011;29495;49.970;20.842;2022-10-16T05:56:01;11.25;;;8.18;;
43841;SDS011;29495;49.970;20.842;2022-10-16T05:58:28;9.65;;;6.68;;
43841;SDS011;29495;49.970;20.842;2022-10-16T06:01:00;9.00;;;7.10;;
43841;SDS011;29495;49.970;20.842;2022-10-16T06:03:29;11.52;;;7.32;;
43841;SDS011;29495;49.970;20.842;2022-10-16T06:05:55;9.93;;;6.63;;
43841;SDS011;29495;49.970;20.842;2022-10-16T06:08:21;8.85;;;6.53;;
43841;SDS011;29495;49.970;20.842;2022-10-16T06:10:48;9.55;;;6.95;;
43841;SDS011;29495;49.970;20.842;2022-10-16T06:13:25;10.18;;;6.47;;
43841;SDS011;29495;49.970;20.842;2022-10-16T06:15:51;9.00;;;6.75;;
43841;SDS011;29495;49.970;20.842;2022-10-16T06:18:20;8.38;;;6.20;;
43841;SDS011;29495;49.970;20.842;2022-10-16T06:20:46;10.57;;;6.80;;
43841;SDS011;29495;49.970;20.842;2022-10-16T06:23:12;12.95;;;6.90;;
43841;SDS011;29495;49.970;20.842;2022-10-16T06:25:39;8.32;;;6.72;;
43841;SDS011;29495;49.970;20.842;2022-10-16T06:28:05;9.38;;;6.43;;
43841;SDS011;29495;49.970;20.842;2022-10-16T06:30:34;9.57;;;7.45;;
43841;SDS011;29495;49.970;20.842;2022-10-16T06:33:06;9.73;;;5.80;;
43841;SDS011;29495;49.970;20.842;2022-10-16T06:35:34;9.82;;;6.53;;
43841;SDS011;29495;49.970;20.842;2022-10-16T06:38:00;11.98;;;7.38;;
43841;SDS011;29495;49.970;20.842;2022-10-16T06:40:37;9.35;;;5.90;;
43841;SDS011;29495;49.970;20.842;2022-10-16T06:43:46;11.93;;;6.63;;
43841;SDS011;29495;49.970;20.842;2022-10-16T06:46:21;7.30;;;5.28;;
43841;SDS011;29495;49.970;20.842;2022-10-16T06:48:57;9.23;;;5.75;;
43841;SDS011;29495;49.970;20.842;2022-10-16T06:51:34;6.57;;;5.32;;
43841;SDS011;29495;49.970;20.842;2022-10-16T06:54:44;8.25;;;4.97;;
43841;SDS011;29495;49.970;20.842;2022-10-16T06:57:59;6.25;;;4.80;;
43841;SDS011;29495;49.970;20.842;2022-10-16T07:00:29;7.32;;;4.82;;
43841;SDS011;29495;49.970;20.842;2022-10-16T07:03:04;8.20;;;5.45;;
43841;SDS011;29495;49.970;20.842;2022-10-16T07:05:38;5.93;;;4.93;;
43841;SDS011;29495;49.970;20.842;2022-10-16T07:08:13;6.45;;;5.28;;
43841;SDS011;29495;49.970;20.842;2022-10-16T07:10:45;6.55;;;5.40;;
43841;SDS011;29495;49.970;20.842;2022-10-16T07:13:26;6.88;;;5.40;;
43841;SDS011;29495;49.970;20.842;2022-10-16T07:15:52;8.02;;;5.57;;
43841;SDS011;29495;49.970;20.842;2022-10-16T07:18:25;6.45;;;5.15;;
43841;SDS011;29495;49.970;20.842;2022-10-16T07:21:11;6.53;;;5.20;;
43841;SDS011;29495;49.970;20.842;2022-10-16T07:23:45;9.07;;;5.45;;
43841;SDS011;29495;49.970;20.842;2022-10-16T07:26:33;8.23;;;5.70;;
43841;SDS011;29495;49.970;20.842;2022-10-16T07:29:20;6.47;;;5.28;;
43841;SDS011;29495;49.970;20.842;2022-10-16T07:31:52;6.43;;;4.55;;
43841;SDS011;29495;49.970;20.842;2022-10-16T07:37:34;6.60;;;5.00;;
43841;SDS011;29495;49.970;20.842;2022-10-16T07:40:10;8.20;;;5.22;;
43841;SDS011;29495;49.970;20.842;2022-10-16T07:42:42;6.47;;;5.35;;
43841;SDS011;29495;49.970;20.842;2022-10-16T07:45:20;8.75;;;5.13;;
43841;SDS011;29495;49.970;20.842;2022-10-16T07:47:52;11.32;;;5.57;;
43841;SDS011;29495;49.970;20.842;2022-10-16T07:50:19;6.95;;;5.28;;
43841;SDS011;29495;49.970;20.842;2022-10-16T07:52:45;6.82;;;5.30;;
43841;SDS011;29495;49.970;20.842;2022-10-16T07:55:19;8.57;;;5.78;;
43841;SDS011;29495;49.970;20.842;2022-10-16T07:58:18;9.48;;;4.97;;
43841;SDS011;29495;49.970;20.842;2022-10-16T08:04:05;5.50;;;4.78;;
43841;SDS011;29495;49.970;20.842;2022-10-16T08:06:38;9.45;;;6.03;;
43841;SDS011;29495;49.970;20.842;2022-10-16T08:09:10;6.25;;;5.25;;
43841;SDS011;29495;49.970;20.842;2022-10-16T08:11:40;7.78;;;5.10;;
43841;SDS011;29495;49.970;20.842;2022-10-16T08:14:19;6.88;;;5.50;;
43841;SDS011;29495;49.970;20.842;2022-10-16T08:17:14;6.82;;;4.90;;
43841;SDS011;29495;49.970;20.842;2022-10-16T08:19:48;5.88;;;4.68;;
43841;SDS011;29495;49.970;20.842;2022-10-16T08:22:21;6.95;;;4.70;;
43841;SDS011;29495;49.970;20.842;2022-10-16T08:24:50;7.15;;;5.47;;
43841;SDS011;29495;49.970;20.842;2022-10-16T08:28:08;7.80;;;5.72;;
43841;SDS011;29495;49.970;20.842;2022-10-16T08:34:38;7.22;;;5.28;;
43841;SDS011;29495;49.970;20.842;2022-10-16T08:37:24;6.97;;;5.35;;
43841;SDS011;29495;49.970;20.842;2022-10-16T08:44:30;17.38;;;7.32;;
43841;SDS011;29495;49.970;20.842;2022-10-16T08:51:07;6.78;;;5.07;;
43841;SDS011;29495;49.970;20.842;2022-10-16T08:54:03;9.52;;;5.72;;
43841;SDS011;29495;49.970;20.842;2022-10-16T09:00:37;9.90;;;5.95;;
43841;SDS011;29495;49.970;20.842;2022-10-16T09:12:46;9.30;;;5.43;;
43841;SDS011;29495;49.970;20.842;2022-10-16T09:20:51;5.43;;;4.45;;
43841;SDS011;29495;49.970;20.842;2022-10-16T09:23:41;5.75;;;4.30;;
43841;SDS011;29495;49.970;20.842;2022-10-16T09:29:31;7.22;;;5.60;;
43841;SDS011;29495;49.970;20.842;2022-10-16T09:31:57;6.50;;;4.80;;
43841;SDS011;29495;49.970;20.842;2022-10-16T09:34:36;5.40;;;4.72;;
43841;SDS011;29495;49.970;20.842;2022-10-16T09:37:09;7.10;;;4.07;;
43841;SDS011;29495;49.970;20.842;2022-10-16T09:39:46;6.00;;;4.40;;
43841;SDS011;29495;49.970;20.842;2022-10-16T09:42:15;5.95;;;4.35;;
43841;SDS011;29495;49.970;20.842;2022-10-16T09:44:46;5.07;;;4.55;;
43841;SDS011;29495;49.970;20.842;2022-10-16T09:47:23;6.38;;;4.22;;
43841;SDS011;29495;49.970;20.842;2022-10-16T09:49:55;5.88;;;4.55;;
43841;SDS011;29495;49.970;20.842;2022-10-16T09:52:25;5.93;;;5.20;;
43841;SDS011;29495;49.970;20.842;2022-10-16T09:54:52;7.57;;;4.93;;
43841;SDS011;29495;49.970;20.842;2022-10-16T09:57:31;6.65;;;5.47;;
43841;SDS011;29495;49.970;20.842;2022-10-16T10:00:04;8.85;;;6.10;;
43841;SDS011;29495;49.970;20.842;2022-10-16T10:02:36;8.18;;;5.47;;
43841;SDS011;29495;49.970;20.842;2022-10-16T10:05:06;5.78;;;4.82;;
43841;SDS011;29495;49.970;20.842;2022-10-16T10:07:44;10.05;;;5.38;;
43841;SDS011;29495;49.970;20.842;2022-10-16T10:10:22;7.35;;;5.43;;
43841;SDS011;29495;49.970;20.842;2022-10-16T10:12:53;7.47;;;5.80;;
43841;SDS011;29495;49.970;20.842;2022-10-16T10:15:20;8.20;;;5.45;;
43841;SDS011;29495;49.970;20.842;2022-10-16T10:20:28;8.48;;;5.32;;
43841;SDS011;29495;49.970;20.842;2022-10-16T10:23:23;5.90;;;5.18;;
43841;SDS011;29495;49.970;20.842;2022-10-16T10:25:56;5.80;;;4.50;;
43841;SDS011;29495;49.970;20.842;2022-10-16T10:28:48;4.32;;;3.80;;
43841;SDS011;29495;49.970;20.842;2022-10-16T10:31:32;6.43;;;4.78;;
43841;SDS011;29495;49.970;20.842;2022-10-16T10:37:17;7.85;;;5.60;;
43841;SDS011;29495;49.970;20.842;2022-10-16T10:39:48;5.50;;;4.38;;
43841;SDS011;29495;49.970;20.842;2022-10-16T10:45:27;8.05;;;5.45;;
43841;SDS011;29495;49.970;20.842;2022-10-16T10:50:47;6.55;;;4.25;;
43841;SDS011;29495;49.970;20.842;2022-10-16T11:01:16;5.70;;;4.88;;
43841;SDS011;29495;49.970;20.842;2022-10-16T11:06:36;7.97;;;5.60;;
43841;SDS011;29495;49.970;20.842;2022-10-16T11:09:18;5.95;;;4.75;;
43841;SDS011;29495;49.970;20.842;2022-10-16T11:12:07;6.22;;;4.88;;
43841;SDS011;29495;49.970;20.842;2022-10-16T11:17:45;5.65;;;4.57;;
43841;SDS011;29495;49.970;20.842;2022-10-16T11:20:32;5.70;;;4.90;;
43841;SDS011;29495;49.970;20.842;2022-10-16T11:23:06;7.57;;;5.43;;
43841;SDS011;29495;49.970;20.842;2022-10-16T11:25:54;6.07;;;4.90;;
43841;SDS011;29495;49.970;20.842;2022-10-16T11:28:34;6.20;;;3.88;;
43841;SDS011;29495;49.970;20.842;2022-10-16T11:31:08;4.63;;;3.83;;
43841;SDS011;29495;49.970;20.842;2022-10-16T11:33:46;5.35;;;3.92;;
43841;SDS011;29495;49.970;20.842;2022-10-16T11:39:37;8.45;;;4.72;;
43841;SDS011;29495;49.970;20.842;2022-10-16T11:42:09;6.70;;;4.82;;
43841;SDS011;29495;49.970;20.842;2022-10-16T11:47:33;5.50;;;4.38;;
43841;SDS011;29495;49.970;20.842;2022-10-16T11:55:46;6.05;;;4.40;;
43841;SDS011;29495;49.970;20.842;2022-10-16T11:58:34;6.65;;;5.40;;
43841;SDS011;29495;49.970;20.842;2022-10-16T12:03:58;6.25;;;4.35;;
43841;SDS011;29495;49.970;20.842;2022-10-16T12:09:15;6.47;;;5.25;;
43841;SDS011;29495;49.970;20.842;2022-10-16T12:11:51;6.70;;;5.47;;
43841;SDS011;29495;49.970;20.842;2022-10-16T12:14:19;6.57;;;5.30;;
43841;SDS011;29495;49.970;20.842;2022-10-16T12:16:54;5.55;;;4.95;;
43841;SDS011;29495;49.970;20.842;2022-10-16T12:19:24;7.70;;;5.82;;
43841;SDS011;29495;49.970;20.842;2022-10-16T12:21:52;7.78;;;6.15;;
43841;SDS011;29495;49.970;20.842;2022-10-16T12:24:28;6.85;;;5.28;;
43841;SDS011;29495;49.970;20.842;2022-10-16T12:26:58;7.22;;;5.43;;
43841;SDS011;29495;49.970;20.842;2022-10-16T12:29:33;6.63;;;5.18;;
43841;SDS011;29495;49.970;20.842;2022-10-16T12:32:04;6.10;;;5.10;;
43841;SDS011;29495;49.970;20.842;2022-10-16T12:34:47;6.38;;;4.50;;
43841;SDS011;29495;49.970;20.842;2022-10-16T12:37:21;5.60;;;4.60;;
43841;SDS011;29495;49.970;20.842;2022-10-16T12:40:22;7.10;;;4.95;;
43841;SDS011;29495;49.970;20.842;2022-10-16T12:42:57;5.65;;;4.47;;
43841;SDS011;29495;49.970;20.842;2022-10-16T12:45:30;9.95;;;4.90;;
43841;SDS011;29495;49.970;20.842;2022-10-16T12:48:28;5.80;;;4.22;;
43841;SDS011;29495;49.970;20.842;2022-10-16T12:50:57;5.43;;;4.40;;
43841;SDS011;29495;49.970;20.842;2022-10-16T12:53:34;4.88;;;4.18;;
43841;SDS011;29495;49.970;20.842;2022-10-16T12:59:02;6.18;;;4.72;;
43841;SDS011;29495;49.970;20.842;2022-10-16T13:04:41;6.15;;;5.30;;
43841;SDS011;29495;49.970;20.842;2022-10-16T13:07:23;5.90;;;3.97;;
43841;SDS011;29495;49.970;20.842;2022-10-16T13:10:28;6.72;;;4.70;;
43841;SDS011;29495;49.970;20.842;2022-10-16T13:21:30;4.80;;;3.75;;
43841;SDS011;29495;49.970;20.842;2022-10-16T13:29:29;4.60;;;3.55;;
43841;SDS011;29495;49.970;20.842;2022-10-16T13:31:57;5.15;;;4.10;;
43841;SDS011;29495;49.970;20.842;2022-10-16T13:34:25;7.35;;;5.03;;
43841;SDS011;29495;49.970;20.842;2022-10-16T13:36:55;7.82;;;5.38;;
43841;SDS011;29495;49.970;20.842;2022-10-16T13:39:24;8.68;;;5.18;;
43841;SDS011;29495;49.970;20.842;2022-10-16T13:42:12;7.82;;;6.07;;
43841;SDS011;29495;49.970;20.842;2022-10-16T13:44:44;7.68;;;5.68;;
43841;SDS011;29495;49.970;20.842;2022-10-16T13:47:23;7.47;;;5.03;;
43841;SDS011;29495;49.970;20.842;2022-10-16T13:50:01;7.60;;;5.10;;
43841;SDS011;29495;49.970;20.842;2022-10-16T13:52:55;7.88;;;5.28;;
43841;SDS011;29495;49.970;20.842;2022-10-16T13:55:55;7.88;;;5.70;;
43841;SDS011;29495;49.970;20.842;2022-10-16T13:58:38;6.45;;;4.57;;
43841;SDS011;29495;49.970;20.842;2022-10-16T14:03:49;7.32;;;5.00;;
43841;SDS011;29495;49.970;20.842;2022-10-16T14:06:20;8.20;;;5.75;;
43841;SDS011;29495;49.970;20.842;2022-10-16T14:09:11;7.45;;;5.75;;
43841;SDS011;29495;49.970;20.842;2022-10-16T14:11:57;9.35;;;5.85;;
43841;SDS011;29495;49.970;20.842;2022-10-16T14:14:43;6.78;;;5.00;;
43841;SDS011;29495;49.970;20.842;2022-10-16T14:20:26;6.80;;;5.00;;
43841;SDS011;29495;49.970;20.842;2022-10-16T14:23:00;6.10;;;4.50;;
43841;SDS011;29495;49.970;20.842;2022-10-16T14:25:49;5.53;;;4.20;;
43841;SDS011;29495;49.970;20.842;2022-10-16T14:28:22;5.32;;;3.95;;
43841;SDS011;29495;49.970;20.842;2022-10-16T14:30:57;6.30;;;4.38;;
43841;SDS011;29495;49.970;20.842;2022-10-16T14:33:32;8.77;;;4.20;;
43841;SDS011;29495;49.970;20.842;2022-10-16T14:38:40;7.03;;;5.07;;
43841;SDS011;29495;49.970;20.842;2022-10-16T14:41:22;7.72;;;4.93;;
43841;SDS011;29495;49.970;20.842;2022-10-16T14:43:57;8.13;;;5.30;;
43841;SDS011;29495;49.970;20.842;2022-10-16T14:46:35;6.13;;;4.88;;
43841;SDS011;29495;49.970;20.842;2022-10-16T14:51:36;5.95;;;4.53;;
43841;SDS011;29495;49.970;20.842;2022-10-16T14:54:03;5.57;;;4.38;;
43841;SDS011;29495;49.970;20.842;2022-10-16T14:56:41;6.65;;;4.63;;
43841;SDS011;29495;49.970;20.842;2022-10-16T14:59:16;7.65;;;4.88;;
43841;SDS011;29495;49.970;20.842;2022-10-16T15:04:48;6.00;;;5.15;;
43841;SDS011;29495;49.970;20.842;2022-10-16T15:07:14;7.13;;;4.78;;
43841;SDS011;29495;49.970;20.842;2022-10-16T15:09:40;5.65;;;4.70;;
43841;SDS011;29495;49.970;20.842;2022-10-16T15:12:06;6.65;;;4.95;;
43841;SDS011;29495;49.970;20.842;2022-10-16T15:14:32;6.60;;;4.35;;
43841;SDS011;29495;49.970;20.842;2022-10-16T15:16:58;7.45;;;5.32;;
43841;SDS011;29495;49.970;20.842;2022-10-16T15:19:24;6.43;;;4.63;;
43841;SDS011;29495;49.970;20.842;2022-10-16T15:21:50;6.38;;;4.82;;
43841;SDS011;29495;49.970;20.842;2022-10-16T15:24:17;6.10;;;5.13;;
43841;SDS011;29495;49.970;20.842;2022-10-16T15:26:43;8.73;;;5.10;;
43841;SDS011;29495;49.970;20.842;2022-10-16T15:29:11;5.88;;;4.65;;
43841;SDS011;29495;49.970;20.842;2022-10-16T15:31:37;6.35;;;4.50;;
43841;SDS011;29495;49.970;20.842;2022-10-16T15:34:04;6.13;;;5.10;;
43841;SDS011;29495;49.970;20.842;2022-10-16T15:36:32;10.63;;;6.43;;
43841;SDS011;29495;49.970;20.842;2022-10-16T15:41:41;7.35;;;5.45;;
43841;SDS011;29495;49.970;20.842;2022-10-16T15:44:07;8.52;;;5.60;;
43841;SDS011;29495;49.970;20.842;2022-10-16T15:46:33;9.38;;;5.50;;
43841;SDS011;29495;49.970;20.842;2022-10-16T15:48:59;7.88;;;5.00;;
43841;SDS011;29495;49.970;20.842;2022-10-16T15:51:26;8.30;;;5.32;;
43841;SDS011;29495;49.970;20.842;2022-10-16T15:53:57;9.50;;;5.60;;
43841;SDS011;29495;49.970;20.842;2022-10-16T15:56:29;9.52;;;5.68;;
43841;SDS011;29495;49.970;20.842;2022-10-16T15:58:58;11.95;;;6.35;;
43841;SDS011;29495;49.970;20.842;2022-10-16T16:01:26;10.43;;;6.57;;
43841;SDS011;29495;49.970;20.842;2022-10-16T16:03:53;13.73;;;7.25;;
43841;SDS011;29495;49.970;20.842;2022-10-16T16:06:19;11.65;;;6.57;;
43841;SDS011;29495;49.970;20.842;2022-10-16T16:08:46;9.55;;;6.80;;
43841;SDS011;29495;49.970;20.842;2022-10-16T16:11:13;10.75;;;6.95;;
43841;SDS011;29495;49.970;20.842;2022-10-16T16:13:40;10.40;;;6.77;;
43841;SDS011;29495;49.970;20.842;2022-10-16T16:16:07;9.27;;;6.63;;
43841;SDS011;29495;49.970;20.842;2022-10-16T16:18:35;8.70;;;5.50;;
43841;SDS011;29495;49.970;20.842;2022-10-16T16:21:01;6.75;;;5.38;;
43841;SDS011;29495;49.970;20.842;2022-10-16T16:23:27;8.48;;;5.35;;
43841;SDS011;29495;49.970;20.842;2022-10-16T16:28:33;5.90;;;4.55;;
43841;SDS011;29495;49.970;20.842;2022-10-16T16:30:59;5.78;;;4.25;;
43841;SDS011;29495;49.970;20.842;2022-10-16T16:33:25;5.57;;;4.25;;
43841;SDS011;29495;49.970;20.842;2022-10-16T16:35:55;7.00;;;4.93;;
43841;SDS011;29495;49.970;20.842;2022-10-16T16:38:22;7.70;;;4.97;;
43841;SDS011;29495;49.970;20.842;2022-10-16T16:40:48;6.22;;;4.57;;
43841;SDS011;29495;49.970;20.842;2022-10-16T16:43:14;5.90;;;4.57;;
43841;SDS011;29495;49.970;20.842;2022-10-16T16:45:40;6.38;;;4.35;;
43841;SDS011;29495;49.970;20.842;2022-10-16T16:48:06;9.75;;;4.82;;
43841;SDS011;29495;49.970;20.842;2022-10-16T16:50:38;6.47;;;4.30;;
43841;SDS011;29495;49.970;20.842;2022-10-16T16:53:04;6.82;;;4.97;;
43841;SDS011;29495;49.970;20.842;2022-10-16T16:55:30;6.10;;;4.40;;
43841;SDS011;29495;49.970;20.842;2022-10-16T16:57:57;6.55;;;4.25;;
43841;SDS011;29495;49.970;20.842;2022-10-16T17:00:23;6.43;;;4.47;;
43841;SDS011;29495;49.970;20.842;2022-10-16T17:02:50;6.78;;;4.43;;
43841;SDS011;29495;49.970;20.842;2022-10-16T17:05:16;9.55;;;5.25;;
43841;SDS011;29495;49.970;20.842;2022-10-16T17:07:43;8.98;;;5.50;;
43841;SDS011;29495;49.970;20.842;2022-10-16T17:10:10;7.35;;;4.97;;
43841;SDS011;29495;49.970;20.842;2022-10-16T17:12:36;8.88;;;5.68;;
43841;SDS011;29495;49.970;20.842;2022-10-16T17:15:02;9.52;;;6.78;;
43841;SDS011;29495;49.970;20.842;2022-10-16T17:17:29;7.18;;;5.20;;
43841;SDS011;29495;49.970;20.842;2022-10-16T17:19:55;7.40;;;5.68;;
43841;SDS011;29495;49.970;20.842;2022-10-16T17:22:21;7.18;;;5.30;;
43841;SDS011;29495;49.970;20.842;2022-10-16T17:24:48;7.43;;;5.45;;
43841;SDS011;29495;49.970;20.842;2022-10-16T17:27:15;9.85;;;5.50;;
43841;SDS011;29495;49.970;20.842;2022-10-16T17:29:41;7.20;;;5.07;;
43841;SDS011;29495;49.970;20.842;2022-10-16T17:32:07;8.38;;;4.72;;